Em Athens — V7US8 — position and weather

sailwx.info

Track history (hours):
 
Tides and Currents Weather Stations Pressure Air Temp Water Temp Dewpoint Dewpoint Depression Visibility Wind Speed Wind Dir Waves Ship Positions

Em Athens

Last reported at 2017-May-25 14:57 UTC. Time now 2017-May-26 16:52 UTC.
Position N 36°55' E 023°35'.

Length 207 m; draft 11.9 m.

Type: Ship (hazmat cat A). MMSI: 538004019.

Date/timePositionNaut miles runAvg speedWind from/ knotsBaromVisibWave heightAir tempDewpointWater temp
2017-May-25 14:57N 36°55' E 023°35'1314.2
2017-May-25 14:01N 37°08' E 023°39'714.3
2017-May-25 13:30N 37°15' E 023°41'714.8
2017-May-25 13:00N 37°22' E 023°42'714.7
2017-May-25 12:31N 37°30' E 023°44'714.7
2017-May-25 12:00N 37°37' E 023°43'714.5
2017-May-25 11:30N 37°44' E 023°40'714.3
2017-May-25 11:00N 37°51' E 023°36'611.5
2017-May-25 10:31N 37°56' E 023°36'1 2.2
2017-May-25 09:58N 37°57' E 023°36'0 0.0
2017-May-25 09:28N 37°57' E 023°36'0 0.0
2017-May-25 08:58N 37°57' E 023°36'0 0.0
2017-May-25 08:28N 37°57' E 023°36'0 0.0
2017-May-25 07:58N 37°57' E 023°36'0 0.0
2017-May-25 07:25N 37°57' E 023°36'0 0.0
2017-May-25 06:58N 37°57' E 023°36'0 0.0
2017-May-25 06:28N 37°57' E 023°36'0 0.0
2017-May-25 05:58N 37°57' E 023°36'0 0.0
2017-May-25 05:28N 37°57' E 023°36'0 0.0
2017-May-25 04:58N 37°57' E 023°36'0 0.0
2017-May-25 04:28N 37°57' E 023°36'0 0.0
2017-May-25 03:58N 37°57' E 023°36'0 0.0
2017-May-25 03:28N 37°57' E 023°36'0 0.0
2017-May-25 02:58N 37°57' E 023°36'0 0.0
2017-May-25 02:28N 37°57' E 023°36'0 0.0
2017-May-25 01:58N 37°57' E 023°36'0 0.0
2017-May-25 01:28N 37°57' E 023°36'0 0.0
2017-May-25 00:58N 37°57' E 023°36'0 0.0
2017-May-25 00:28N 37°57' E 023°36'0 0.0
2017-May-24 23:58N 37°57' E 023°36'0 0.0
2017-May-24 23:25N 37°57' E 023°36'0 0.0
2017-May-24 22:58N 37°57' E 023°36'0 0.0
2017-May-24 22:28N 37°57' E 023°36'0 0.0
2017-May-24 21:58N 37°57' E 023°36'0 0.0
2017-May-24 21:28N 37°57' E 023°36'0 0.0
2017-May-24 20:58N 37°57' E 023°36'0 0.0
2017-May-24 20:28N 37°57' E 023°36'0 0.0
2017-May-24 19:58N 37°57' E 023°36'0 0.0
2017-May-24 19:22N 37°57' E 023°36'0 0.0
2017-May-24 18:58N 37°57' E 023°36'0 0.0
2017-May-24 18:28N 37°57' E 023°36'0 0.3
2017-May-24 18:00N 37°57' E 023°36'2 3.5
2017-May-24 17:30N 37°56' E 023°37'2 4.3
2017-May-24 17:00N 37°54' E 023°35'0 0.1
2017-May-24 16:30N 37°54' E 023°35'0 0.1
2017-May-24 16:01N 37°54' E 023°35'2 3.1
2017-May-24 15:31N 37°53' E 023°34'2 4.5
2017-May-24 15:00N 37°51' E 023°32'0 0.2
2017-May-24 14:30N 37°51' E 023°32'0 0.0
2017-May-24 13:30N 37°51' E 023°32'0 0.0
2017-May-24 13:00N 37°51' E 023°32'0 0.0
2017-May-24 12:30N 37°51' E 023°32'0 0.0
2017-May-24 12:00N 37°51' E 023°32'0 0.0
2017-May-24 11:30N 37°51' E 023°32'0 0.0
2017-May-24 11:00N 37°51' E 023°32'0 0.0
2017-May-24 10:30N 37°51' E 023°32'0 0.0
2017-May-24 10:00N 37°51' E 023°32'0 0.1
2017-May-24 09:30N 37°51' E 023°32'2 4.0
2017-May-24 09:00N 37°52' E 023°34'1 2.5
2017-May-24 08:30N 37°53' E 023°35'0 0.2
2017-May-24 08:00N 37°53' E 023°35'0 0.1
2017-May-24 07:30N 37°53' E 023°35'0 0.1
2017-May-24 07:00N 37°53' E 023°35'0 0.1
2017-May-24 06:30N 37°53' E 023°35'0 0.2
2017-May-24 06:00N 37°53' E 023°35'0 0.9
2017-May-24 05:30N 37°53' E 023°35'0 0.3
2017-May-24 05:00N 37°53' E 023°35'0 0.2
2017-May-24 04:30N 37°53' E 023°35'0 0.3
2017-May-24 04:00N 37°53' E 023°35'0 0.6
2017-May-24 03:30N 37°53' E 023°35'0 0.3
2017-May-24 03:01N 37°53' E 023°35'0 0.1
2017-May-24 02:30N 37°53' E 023°35'0 0.2
2017-May-24 02:00N 37°53' E 023°35'4 7.2
2017-May-24 01:30N 37°51' E 023°39'510.9
2017-May-24 01:00N 37°46' E 023°42'611.2
2017-May-24 00:30N 37°41' E 023°45'713.5
2017-May-24 00:01N 37°35' E 023°47'714.3
2017-May-23 23:30N 37°28' E 023°50'  
2017-May-20 11:08N 36°50' E 030°37'0 0.0
2017-May-20 10:59N 36°50' E 030°37'0 0.0
2017-May-20 10:29N 36°50' E 030°37'0 0.0
2017-May-20 09:59N 36°50' E 030°37'0 0.0
2017-May-20 09:29N 36°50' E 030°37'0 0.0
2017-May-20 08:59N 36°50' E 030°37'0 0.0
2017-May-20 08:29N 36°50' E 030°37'0 0.0
2017-May-20 07:59N 36°50' E 030°37'0 0.0
2017-May-20 07:29N 36°50' E 030°37'0 0.0
2017-May-20 06:59N 36°50' E 030°37'0 0.0
2017-May-20 06:29N 36°50' E 030°37'0 0.0
2017-May-20 05:56N 36°50' E 030°37'0 0.0
2017-May-20 05:29N 36°50' E 030°37'0 0.0
2017-May-20 04:59N 36°50' E 030°37'0 0.0
2017-May-20 04:29N 36°50' E 030°37'0 0.0
2017-May-20 03:59N 36°50' E 030°37'0 0.0
2017-May-20 03:29N 36°50' E 030°37'0 0.0
2017-May-20 02:59N 36°50' E 030°37'0 0.0
2017-May-20 02:29N 36°50' E 030°37'0 0.0
2017-May-20 01:59N 36°50' E 030°37'0 0.0
2017-May-20 01:29N 36°50' E 030°37'0 0.0
2017-May-20 00:59N 36°50' E 030°37'0 0.0
2017-May-20 00:29N 36°50' E 030°37'0 0.0
2017-May-19 23:59N 36°50' E 030°37'0 0.0
2017-May-19 23:29N 36°50' E 030°37'0 0.0
2017-May-19 22:59N 36°50' E 030°37'0 0.0
2017-May-19 22:29N 36°50' E 030°37'0 0.1
2017-May-19 21:59N 36°50' E 030°37'0 0.0
2017-May-19 21:29N 36°50' E 030°37'0 0.0
2017-May-19 20:59N 36°50' E 030°37'0 0.0
2017-May-19 20:08N 36°50' E 030°37'0 0.0
2017-May-19 19:59N 36°50' E 030°37'0 0.0
2017-May-19 19:29N 36°50' E 030°37'0 0.0
2017-May-19 18:59N 36°50' E 030°37'0 0.0
2017-May-19 18:02N 36°50' E 030°37'0 0.0
2017-May-19 17:32N 36°50' E 030°37'0 0.0
2017-May-19 17:26N 36°50' E 030°37'0 0.0
2017-May-19 16:56N 36°50' E 030°37'0 0.1
2017-May-19 16:29N 36°50' E 030°37'0 0.0
2017-May-19 09:02N 36°50' E 030°37'0 0.0
2017-May-19 08:59N 36°50' E 030°37'0 0.0
2017-May-19 08:29N 36°50' E 030°37'0 0.0
2017-May-19 07:59N 36°50' E 030°37'0 0.0
2017-May-19 07:29N 36°50' E 030°37'0 0.0
2017-May-19 06:59N 36°50' E 030°37'1 0.6
2017-May-19 04:55N 36°50' E 030°38'3 8.5
2017-May-19 04:30N 36°48' E 030°42'612.3
2017-May-19 04:00N 36°45' E 030°49'713.6
2017-May-19 03:30N 36°42' E 030°56'714.2
2017-May-19 03:01N 36°39' E 031°04'917.7
2017-May-19 02:30N 36°34' E 031°14'167 7.2
2017-May-18 03:26N 36°44' E 034°41'5513.0
2017-May-17 23:13N 35°50' E 034°44'2213.7
2017-May-17 21:36N 35°28' E 034°38'314.1
2017-May-17 21:23N 35°25' E 034°37'513.9
2017-May-17 21:00N 35°20' E 034°34'713.5
2017-May-17 20:30N 35°14' E 034°31'713.7
2017-May-17 20:00N 35°08' E 034°28'2413.8
2017-May-17 18:18N 34°46' E 034°17'713.7
2017-May-17 17:46N 34°40' E 034°13'513.9
2017-May-17 17:23N 34°35' E 034°10'513.8
2017-May-17 17:00N 34°30' E 034°08'1014.2
2017-May-17 16:18N 34°21' E 034°03'514.3
2017-May-17 15:57N 34°16' E 034°00'614.2
2017-May-17 15:30N 34°11' E 033°57'714.2
2017-May-17 15:00N 34°04' E 033°54'1914.0
2017-May-17 13:40N 33°46' E 033°46'213.9
2017-May-17 13:30N 33°44' E 033°45'713.8
2017-May-17 13:00N 33°38' E 033°41'814.0
2017-May-17 12:25N 33°30' E 033°37'614.0
2017-May-17 12:00N 33°25' E 033°35'1513.5
2017-May-17 10:55N 33°12' E 033°28'613.2
2017-May-17 10:30N 33°06' E 033°25'613.3
2017-May-17 10:00N 33°00' E 033°22'713.5
2017-May-17 09:30N 32°54' E 033°19'713.7
2017-May-17 09:00N 32°48' E 033°16'714.0
2017-May-17 08:30N 32°41' E 033°12'1314.2
2017-May-17 07:36N 32°30' E 033°07'114.2
2017-May-17 07:30N 32°28' E 033°06'1714.3
2017-May-17 06:20N 32°13' E 032°58'514.6
2017-May-17 05:59N 32°08' E 032°56'814.8
2017-May-17 05:25N 32°01' E 032°52'614.7
2017-May-17 05:00N 31°55' E 032°49'914.3
2017-May-17 04:21N 31°47' E 032°44'3711.5
2017-May-17 01:07N 31°16' E 032°19'2 0.2
2017-May-16 13:33N 31°14' E 032°18'0 0.4
2017-May-16 13:30N 31°14' E 032°18'8 6.1
2017-May-16 12:15N 31°22' E 032°21'2 7.0
2017-May-16 11:57N 31°22' E 032°18'0 0.8
2017-May-16 11:29N 31°21' E 032°18'0 0.1
2017-May-16 10:59N 31°21' E 032°18'0 0.0
2017-May-16 10:23N 31°21' E 032°18'42 3.2
2017-May-15 21:26N 31°45' E 031°38'511.9
2017-May-15 21:00N 31°45' E 031°32'  
Track history (hours):
 
Tides and Currents Weather Stations Pressure Air Temp Water Temp Dewpoint Dewpoint Depression Visibility Wind Speed Wind Dir Waves Ship Positions

Em Athens

Last reported at 2017-May-25 14:57 UTC. Time now 2017-May-26 16:52 UTC.
Position N 36°55' E 023°35'.

Length 207 m; draft 11.9 m.

Type: Ship (hazmat cat A). MMSI: 538004019.

Date/timePositionNaut miles runAvg speedWind from/ knotsBaromVisibWave heightAir tempDewpointWater temp
2017-May-25 14:57N 36°55' E 023°35'1314.2
2017-May-25 14:01N 37°08' E 023°39'714.3
2017-May-25 13:30N 37°15' E 023°41'714.8
2017-May-25 13:00N 37°22' E 023°42'714.7
2017-May-25 12:31N 37°30' E 023°44'714.7
2017-May-25 12:00N 37°37' E 023°43'714.5
2017-May-25 11:30N 37°44' E 023°40'714.3
2017-May-25 11:00N 37°51' E 023°36'611.5
2017-May-25 10:31N 37°56' E 023°36'1 2.2
2017-May-25 09:58N 37°57' E 023°36'0 0.0
2017-May-25 09:28N 37°57' E 023°36'0 0.0
2017-May-25 08:58N 37°57' E 023°36'0 0.0
2017-May-25 08:28N 37°57' E 023°36'0 0.0
2017-May-25 07:58N 37°57' E 023°36'0 0.0
2017-May-25 07:25N 37°57' E 023°36'0 0.0
2017-May-25 06:58N 37°57' E 023°36'0 0.0
2017-May-25 06:28N 37°57' E 023°36'0 0.0
2017-May-25 05:58N 37°57' E 023°36'0 0.0
2017-May-25 05:28N 37°57' E 023°36'0 0.0
2017-May-25 04:58N 37°57' E 023°36'0 0.0
2017-May-25 04:28N 37°57' E 023°36'0 0.0
2017-May-25 03:58N 37°57' E 023°36'0 0.0
2017-May-25 03:28N 37°57' E 023°36'0 0.0
2017-May-25 02:58N 37°57' E 023°36'0 0.0
2017-May-25 02:28N 37°57' E 023°36'0 0.0
2017-May-25 01:58N 37°57' E 023°36'0 0.0
2017-May-25 01:28N 37°57' E 023°36'0 0.0
2017-May-25 00:58N 37°57' E 023°36'0 0.0
2017-May-25 00:28N 37°57' E 023°36'0 0.0
2017-May-24 23:58N 37°57' E 023°36'0 0.0
2017-May-24 23:25N 37°57' E 023°36'0 0.0
2017-May-24 22:58N 37°57' E 023°36'0 0.0
2017-May-24 22:28N 37°57' E 023°36'0 0.0
2017-May-24 21:58N 37°57' E 023°36'0 0.0
2017-May-24 21:28N 37°57' E 023°36'0 0.0
2017-May-24 20:58N 37°57' E 023°36'0 0.0
2017-May-24 20:28N 37°57' E 023°36'0 0.0
2017-May-24 19:58N 37°57' E 023°36'0 0.0
2017-May-24 19:22N 37°57' E 023°36'0 0.0
2017-May-24 18:58N 37°57' E 023°36'0 0.0
2017-May-24 18:28N 37°57' E 023°36'0 0.3
2017-May-24 18:00N 37°57' E 023°36'2 3.5
2017-May-24 17:30N 37°56' E 023°37'2 4.3
2017-May-24 17:00N 37°54' E 023°35'0 0.1
2017-May-24 16:30N 37°54' E 023°35'0 0.1
2017-May-24 16:01N 37°54' E 023°35'2 3.1
2017-May-24 15:31N 37°53' E 023°34'2 4.5
2017-May-24 15:00N 37°51' E 023°32'0 0.2
2017-May-24 14:30N 37°51' E 023°32'0 0.0
2017-May-24 13:30N 37°51' E 023°32'0 0.0
2017-May-24 13:00N 37°51' E 023°32'0 0.0
2017-May-24 12:30N 37°51' E 023°32'0 0.0
2017-May-24 12:00N 37°51' E 023°32'0 0.0
2017-May-24 11:30N 37°51' E 023°32'0 0.0
2017-May-24 11:00N 37°51' E 023°32'0 0.0
2017-May-24 10:30N 37°51' E 023°32'0 0.0
2017-May-24 10:00N 37°51' E 023°32'0 0.1
2017-May-24 09:30N 37°51' E 023°32'2 4.0
2017-May-24 09:00N 37°52' E 023°34'1 2.5
2017-May-24 08:30N 37°53' E 023°35'0 0.2
2017-May-24 08:00N 37°53' E 023°35'0 0.1
2017-May-24 07:30N 37°53' E 023°35'0 0.1
2017-May-24 07:00N 37°53' E 023°35'0 0.1
2017-May-24 06:30N 37°53' E 023°35'0 0.2
2017-May-24 06:00N 37°53' E 023°35'0 0.9
2017-May-24 05:30N 37°53' E 023°35'0 0.3
2017-May-24 05:00N 37°53' E 023°35'0 0.2
2017-May-24 04:30N 37°53' E 023°35'0 0.3
2017-May-24 04:00N 37°53' E 023°35'0 0.6
2017-May-24 03:30N 37°53' E 023°35'0 0.3
2017-May-24 03:01N 37°53' E 023°35'0 0.1
2017-May-24 02:30N 37°53' E 023°35'0 0.2
2017-May-24 02:00N 37°53' E 023°35'4 7.2
2017-May-24 01:30N 37°51' E 023°39'510.9
2017-May-24 01:00N 37°46' E 023°42'611.2
2017-May-24 00:30N 37°41' E 023°45'713.5
2017-May-24 00:01N 37°35' E 023°47'714.3
2017-May-23 23:30N 37°28' E 023°50'  
2017-May-20 11:08N 36°50' E 030°37'0 0.0
2017-May-20 10:59N 36°50' E 030°37'0 0.0
2017-May-20 10:29N 36°50' E 030°37'0 0.0
2017-May-20 09:59N 36°50' E 030°37'0 0.0
2017-May-20 09:29N 36°50' E 030°37'0 0.0
2017-May-20 08:59N 36°50' E 030°37'0 0.0
2017-May-20 08:29N 36°50' E 030°37'0 0.0
2017-May-20 07:59N 36°50' E 030°37'0 0.0
2017-May-20 07:29N 36°50' E 030°37'0 0.0
2017-May-20 06:59N 36°50' E 030°37'0 0.0
2017-May-20 06:29N 36°50' E 030°37'0 0.0
2017-May-20 05:56N 36°50' E 030°37'0 0.0
2017-May-20 05:29N 36°50' E 030°37'0 0.0
2017-May-20 04:59N 36°50' E 030°37'0 0.0
2017-May-20 04:29N 36°50' E 030°37'0 0.0
2017-May-20 03:59N 36°50' E 030°37'0 0.0
2017-May-20 03:29N 36°50' E 030°37'0 0.0
2017-May-20 02:59N 36°50' E 030°37'0 0.0
2017-May-20 02:29N 36°50' E 030°37'0 0.0
2017-May-20 01:59N 36°50' E 030°37'0 0.0
2017-May-20 01:29N 36°50' E 030°37'0 0.0
2017-May-20 00:59N 36°50' E 030°37'0 0.0
2017-May-20 00:29N 36°50' E 030°37'0 0.0
2017-May-19 23:59N 36°50' E 030°37'0 0.0
2017-May-19 23:29N 36°50' E 030°37'0 0.0
2017-May-19 22:59N 36°50' E 030°37'0 0.0
2017-May-19 22:29N 36°50' E 030°37'0 0.1
2017-May-19 21:59N 36°50' E 030°37'0 0.0
2017-May-19 21:29N 36°50' E 030°37'0 0.0
2017-May-19 20:59N 36°50' E 030°37'0 0.0
2017-May-19 20:08N 36°50' E 030°37'0 0.0
2017-May-19 19:59N 36°50' E 030°37'0 0.0
2017-May-19 19:29N 36°50' E 030°37'0 0.0
2017-May-19 18:59N 36°50' E 030°37'0 0.0
2017-May-19 18:02N 36°50' E 030°37'0 0.0
2017-May-19 17:32N 36°50' E 030°37'0 0.0
2017-May-19 17:26N 36°50' E 030°37'0 0.0
2017-May-19 16:56N 36°50' E 030°37'0 0.1
2017-May-19 16:29N 36°50' E 030°37'0 0.0
2017-May-19 09:02N 36°50' E 030°37'0 0.0
2017-May-19 08:59N 36°50' E 030°37'0 0.0
2017-May-19 08:29N 36°50' E 030°37'0 0.0
2017-May-19 07:59N 36°50' E 030°37'0 0.0
2017-May-19 07:29N 36°50' E 030°37'0 0.0
2017-May-19 06:59N 36°50' E 030°37'1 0.6
2017-May-19 04:55N 36°50' E 030°38'3 8.5
2017-May-19 04:30N 36°48' E 030°42'612.3
2017-May-19 04:00N 36°45' E 030°49'713.6
2017-May-19 03:30N 36°42' E 030°56'714.2
2017-May-19 03:01N 36°39' E 031°04'917.7
2017-May-19 02:30N 36°34' E 031°14'167 7.2
2017-May-18 03:26N 36°44' E 034°41'5513.0
2017-May-17 23:13N 35°50' E 034°44'2213.7
2017-May-17 21:36N 35°28' E 034°38'314.1
2017-May-17 21:23N 35°25' E 034°37'513.9
2017-May-17 21:00N 35°20' E 034°34'713.5
2017-May-17 20:30N 35°14' E 034°31'713.7
2017-May-17 20:00N 35°08' E 034°28'2413.8
2017-May-17 18:18N 34°46' E 034°17'713.7
2017-May-17 17:46N 34°40' E 034°13'513.9
2017-May-17 17:23N 34°35' E 034°10'513.8
2017-May-17 17:00N 34°30' E 034°08'1014.2
2017-May-17 16:18N 34°21' E 034°03'514.3
2017-May-17 15:57N 34°16' E 034°00'614.2
2017-May-17 15:30N 34°11' E 033°57'714.2
2017-May-17 15:00N 34°04' E 033°54'1914.0
2017-May-17 13:40N 33°46' E 033°46'213.9
2017-May-17 13:30N 33°44' E 033°45'713.8
2017-May-17 13:00N 33°38' E 033°41'814.0
2017-May-17 12:25N 33°30' E 033°37'614.0
2017-May-17 12:00N 33°25' E 033°35'1513.5
2017-May-17 10:55N 33°12' E 033°28'613.2
2017-May-17 10:30N 33°06' E 033°25'613.3
2017-May-17 10:00N 33°00' E 033°22'713.5
2017-May-17 09:30N 32°54' E 033°19'713.7
2017-May-17 09:00N 32°48' E 033°16'714.0
2017-May-17 08:30N 32°41' E 033°12'1314.2
2017-May-17 07:36N 32°30' E 033°07'114.2
2017-May-17 07:30N 32°28' E 033°06'1714.3
2017-May-17 06:20N 32°13' E 032°58'514.6
2017-May-17 05:59N 32°08' E 032°56'814.8
2017-May-17 05:25N 32°01' E 032°52'614.7
2017-May-17 05:00N 31°55' E 032°49'914.3
2017-May-17 04:21N 31°47' E 032°44'3711.5
2017-May-17 01:07N 31°16' E 032°19'2 0.2
2017-May-16 13:33N 31°14' E 032°18'0 0.4
2017-May-16 13:30N 31°14' E 032°18'8 6.1
2017-May-16 12:15N 31°22' E 032°21'2 7.0
2017-May-16 11:57N 31°22' E 032°18'0 0.8
2017-May-16 11:29N 31°21' E 032°18'0 0.1
2017-May-16 10:59N 31°21' E 032°18'0 0.0
2017-May-16 10:23N 31°21' E 032°18'42 3.2
2017-May-15 21:26N 31°45' E 031°38'511.9
2017-May-15 21:00N 31°45' E 031°32'  

Dump ship's entire track history